sensor_id;sensor_type;location;lat;lon;timestamp;P1;durP1;ratioP1;P2;durP2;ratioP2
62071;SDS011;48031;48.542;13.232;2023-03-16T00:03:01;6.88;;;2.80;;
62071;SDS011;48031;48.542;13.232;2023-03-16T00:07:03;3.55;;;2.42;;
62071;SDS011;48031;48.542;13.232;2023-03-16T00:11:06;2.67;;;2.10;;
62071;SDS011;48031;48.542;13.232;2023-03-16T00:15:08;4.97;;;3.17;;
62071;SDS011;48031;48.542;13.232;2023-03-16T00:19:10;3.88;;;2.95;;
62071;SDS011;48031;48.542;13.232;2023-03-16T00:23:12;5.13;;;3.33;;
62071;SDS011;48031;48.542;13.232;2023-03-16T00:27:14;2.80;;;1.70;;
62071;SDS011;48031;48.542;13.232;2023-03-16T00:31:17;2.15;;;1.88;;
62071;SDS011;48031;48.542;13.232;2023-03-16T00:35:19;2.33;;;1.90;;
62071;SDS011;48031;48.542;13.232;2023-03-16T00:39:22;2.38;;;2.17;;
62071;SDS011;48031;48.542;13.232;2023-03-16T00:43:23;1.95;;;1.73;;
62071;SDS011;48031;48.542;13.232;2023-03-16T00:47:31;1.73;;;1.63;;
62071;SDS011;48031;48.542;13.232;2023-03-16T00:51:34;1.52;;;1.42;;
62071;SDS011;48031;48.542;13.232;2023-03-16T00:55:36;1.50;;;1.40;;
62071;SDS011;48031;48.542;13.232;2023-03-16T00:59:38;1.50;;;1.40;;
62071;SDS011;48031;48.542;13.232;2023-03-16T01:03:41;1.63;;;1.52;;
62071;SDS011;48031;48.542;13.232;2023-03-16T01:07:43;1.73;;;1.63;;
62071;SDS011;48031;48.542;13.232;2023-03-16T01:11:45;1.40;;;1.30;;
62071;SDS011;48031;48.542;13.232;2023-03-16T01:15:51;1.75;;;1.50;;
62071;SDS011;48031;48.542;13.232;2023-03-16T01:19:54;1.90;;;1.80;;
62071;SDS011;48031;48.542;13.232;2023-03-16T01:23:55;3.78;;;2.22;;
62071;SDS011;48031;48.542;13.232;2023-03-16T01:27:57;2.10;;;1.90;;
62071;SDS011;48031;48.542;13.232;2023-03-16T01:31:59;1.88;;;1.60;;
62071;SDS011;48031;48.542;13.232;2023-03-16T01:36:06;2.10;;;1.90;;
62071;SDS011;48031;48.542;13.232;2023-03-16T01:40:22;1.67;;;1.58;;
62071;SDS011;48031;48.542;13.232;2023-03-16T01:44:25;2.40;;;2.00;;
62071;SDS011;48031;48.542;13.232;2023-03-16T01:48:40;2.63;;;2.10;;
62071;SDS011;48031;48.542;13.232;2023-03-16T01:52:45;1.92;;;1.80;;
62071;SDS011;48031;48.542;13.232;2023-03-16T01:56:52;3.30;;;2.35;;
62071;SDS011;48031;48.542;13.232;2023-03-16T02:00:57;2.10;;;1.90;;
62071;SDS011;48031;48.542;13.232;2023-03-16T02:09:03;2.33;;;1.80;;
62071;SDS011;48031;48.542;13.232;2023-03-16T02:13:06;1.73;;;1.58;;
62071;SDS011;48031;48.542;13.232;2023-03-16T02:17:10;2.72;;;1.90;;
62071;SDS011;48031;48.542;13.232;2023-03-16T02:21:14;2.03;;;1.83;;
62071;SDS011;48031;48.542;13.232;2023-03-16T02:25:52;3.25;;;2.33;;
62071;SDS011;48031;48.542;13.232;2023-03-16T02:30:15;2.25;;;2.03;;
62071;SDS011;48031;48.542;13.232;2023-03-16T02:34:32;2.03;;;1.75;;
62071;SDS011;48031;48.542;13.232;2023-03-16T02:38:35;3.50;;;2.35;;
62071;SDS011;48031;48.542;13.232;2023-03-16T02:42:37;2.83;;;2.25;;
62071;SDS011;48031;48.542;13.232;2023-03-16T02:46:39;2.58;;;2.00;;
62071;SDS011;48031;48.542;13.232;2023-03-16T02:50:44;2.40;;;2.13;;
62071;SDS011;48031;48.542;13.232;2023-03-16T02:54:49;3.53;;;2.53;;
62071;SDS011;48031;48.542;13.232;2023-03-16T02:58:51;2.47;;;2.10;;
62071;SDS011;48031;48.542;13.232;2023-03-16T03:02:54;3.83;;;2.47;;
62071;SDS011;48031;48.542;13.232;2023-03-16T03:06:56;4.40;;;2.80;;
62071;SDS011;48031;48.542;13.232;2023-03-16T03:11:08;3.28;;;2.50;;
62071;SDS011;48031;48.542;13.232;2023-03-16T03:15:10;2.15;;;1.95;;
62071;SDS011;48031;48.542;13.232;2023-03-16T03:19:25;3.80;;;2.35;;
62071;SDS011;48031;48.542;13.232;2023-03-16T03:23:27;3.13;;;2.22;;
62071;SDS011;48031;48.542;13.232;2023-03-16T03:27:29;2.15;;;1.95;;
62071;SDS011;48031;48.542;13.232;2023-03-16T03:31:31;1.98;;;1.77;;
62071;SDS011;48031;48.542;13.232;2023-03-16T03:35:33;2.65;;;2.42;;
62071;SDS011;48031;48.542;13.232;2023-03-16T03:39:35;2.45;;;2.15;;
62071;SDS011;48031;48.542;13.232;2023-03-16T03:43:36;2.60;;;2.20;;
62071;SDS011;48031;48.542;13.232;2023-03-16T03:47:41;3.03;;;2.22;;
62071;SDS011;48031;48.542;13.232;2023-03-16T03:51:49;2.40;;;1.90;;
62071;SDS011;48031;48.542;13.232;2023-03-16T03:55:57;2.78;;;2.03;;
62071;SDS011;48031;48.542;13.232;2023-03-16T03:59:59;2.53;;;2.33;;
62071;SDS011;48031;48.542;13.232;2023-03-16T04:04:13;3.28;;;2.38;;
62071;SDS011;48031;48.542;13.232;2023-03-16T04:08:15;3.08;;;2.47;;
62071;SDS011;48031;48.542;13.232;2023-03-16T04:12:18;3.13;;;2.70;;
62071;SDS011;48031;48.542;13.232;2023-03-16T04:16:21;3.42;;;2.10;;
62071;SDS011;48031;48.542;13.232;2023-03-16T04:20:26;4.22;;;2.80;;
62071;SDS011;48031;48.542;13.232;2023-03-16T04:24:30;4.10;;;2.80;;
62071;SDS011;48031;48.542;13.232;2023-03-16T04:28:35;4.38;;;3.00;;
62071;SDS011;48031;48.542;13.232;2023-03-16T04:32:38;7.55;;;3.63;;
62071;SDS011;48031;48.542;13.232;2023-03-16T04:36:43;5.65;;;3.40;;
62071;SDS011;48031;48.542;13.232;2023-03-16T04:40:46;5.28;;;3.20;;
62071;SDS011;48031;48.542;13.232;2023-03-16T04:48:57;3.70;;;2.70;;
62071;SDS011;48031;48.542;13.232;2023-03-16T04:53:02;2.88;;;2.22;;
62071;SDS011;48031;48.542;13.232;2023-03-16T04:57:06;3.80;;;2.80;;
62071;SDS011;48031;48.542;13.232;2023-03-16T05:01:19;3.10;;;2.40;;
62071;SDS011;48031;48.542;13.232;2023-03-16T05:05:24;2.33;;;2.00;;
62071;SDS011;48031;48.542;13.232;2023-03-16T05:09:26;1.85;;;1.75;;
62071;SDS011;48031;48.542;13.232;2023-03-16T05:13:29;3.47;;;2.10;;
62071;SDS011;48031;48.542;13.232;2023-03-16T05:17:33;2.88;;;2.30;;
62071;SDS011;48031;48.542;13.232;2023-03-16T05:21:36;3.17;;;2.30;;
62071;SDS011;48031;48.542;13.232;2023-03-16T05:25:42;2.37;;;2.10;;
62071;SDS011;48031;48.542;13.232;2023-03-16T05:29:49;2.60;;;2.17;;
62071;SDS011;48031;48.542;13.232;2023-03-16T05:33:52;2.72;;;2.35;;
62071;SDS011;48031;48.542;13.232;2023-03-16T05:37:56;2.78;;;2.28;;
62071;SDS011;48031;48.542;13.232;2023-03-16T05:41:58;3.38;;;2.28;;
62071;SDS011;48031;48.542;13.232;2023-03-16T05:46:20;3.22;;;2.50;;
62071;SDS011;48031;48.542;13.232;2023-03-16T05:50:25;3.08;;;2.58;;
62071;SDS011;48031;48.542;13.232;2023-03-16T05:54:27;4.22;;;2.72;;
62071;SDS011;48031;48.542;13.232;2023-03-16T05:58:30;2.75;;;2.15;;
62071;SDS011;48031;48.542;13.232;2023-03-16T06:02:39;5.95;;;3.05;;
62071;SDS011;48031;48.542;13.232;2023-03-16T06:06:42;4.90;;;3.63;;
62071;SDS011;48031;48.542;13.232;2023-03-16T06:10:52;3.67;;;2.55;;
62071;SDS011;48031;48.542;13.232;2023-03-16T06:14:54;7.57;;;3.00;;
62071;SDS011;48031;48.542;13.232;2023-03-16T06:18:57;6.85;;;3.88;;
62071;SDS011;48031;48.542;13.232;2023-03-16T06:23:02;5.87;;;3.00;;
62071;SDS011;48031;48.542;13.232;2023-03-16T06:27:06;6.53;;;3.70;;
62071;SDS011;48031;48.542;13.232;2023-03-16T06:31:19;10.57;;;4.57;;
62071;SDS011;48031;48.542;13.232;2023-03-16T06:35:22;10.40;;;4.93;;
62071;SDS011;48031;48.542;13.232;2023-03-16T06:39:40;8.10;;;3.97;;
62071;SDS011;48031;48.542;13.232;2023-03-16T06:43:44;7.00;;;3.15;;
62071;SDS011;48031;48.542;13.232;2023-03-16T06:47:47;6.68;;;3.97;;
62071;SDS011;48031;48.542;13.232;2023-03-16T06:51:49;5.03;;;3.20;;
62071;SDS011;48031;48.542;13.232;2023-03-16T06:55:52;6.53;;;3.88;;
62071;SDS011;48031;48.542;13.232;2023-03-16T06:59:54;11.70;;;5.40;;
62071;SDS011;48031;48.542;13.232;2023-03-16T07:03:56;8.40;;;4.72;;
62071;SDS011;48031;48.542;13.232;2023-03-16T07:08:02;4.63;;;2.92;;
62071;SDS011;48031;48.542;13.232;2023-03-16T07:12:05;6.07;;;2.85;;
62071;SDS011;48031;48.542;13.232;2023-03-16T07:16:07;6.35;;;3.33;;
62071;SDS011;48031;48.542;13.232;2023-03-16T07:20:09;7.60;;;4.30;;
62071;SDS011;48031;48.542;13.232;2023-03-16T07:24:13;5.25;;;3.30;;
62071;SDS011;48031;48.542;13.232;2023-03-16T07:28:15;4.03;;;2.78;;
62071;SDS011;48031;48.542;13.232;2023-03-16T07:32:18;4.57;;;3.00;;
62071;SDS011;48031;48.542;13.232;2023-03-16T07:36:20;5.28;;;3.33;;
62071;SDS011;48031;48.542;13.232;2023-03-16T07:40:28;6.07;;;3.22;;
62071;SDS011;48031;48.542;13.232;2023-03-16T07:44:39;9.90;;;4.50;;
62071;SDS011;48031;48.542;13.232;2023-03-16T07:48:41;7.70;;;4.45;;
62071;SDS011;48031;48.542;13.232;2023-03-16T07:52:45;6.47;;;4.20;;
62071;SDS011;48031;48.542;13.232;2023-03-16T07:56:47;6.45;;;4.40;;
62071;SDS011;48031;48.542;13.232;2023-03-16T08:01:05;8.65;;;5.05;;
62071;SDS011;48031;48.542;13.232;2023-03-16T08:05:09;7.80;;;4.55;;
62071;SDS011;48031;48.542;13.232;2023-03-16T08:09:14;8.68;;;5.07;;
62071;SDS011;48031;48.542;13.232;2023-03-16T08:13:17;10.25;;;6.00;;
62071;SDS011;48031;48.542;13.232;2023-03-16T08:17:20;10.13;;;5.80;;
62071;SDS011;48031;48.542;13.232;2023-03-16T08:21:23;8.07;;;5.25;;
62071;SDS011;48031;48.542;13.232;2023-03-16T08:25:27;8.05;;;4.72;;
62071;SDS011;48031;48.542;13.232;2023-03-16T08:29:38;8.80;;;4.93;;
62071;SDS011;48031;48.542;13.232;2023-03-16T08:33:46;8.02;;;5.18;;
62071;SDS011;48031;48.542;13.232;2023-03-16T08:37:52;8.68;;;4.38;;
62071;SDS011;48031;48.542;13.232;2023-03-16T08:41:55;11.50;;;5.40;;
62071;SDS011;48031;48.542;13.232;2023-03-16T08:46:04;9.48;;;5.35;;
62071;SDS011;48031;48.542;13.232;2023-03-16T08:50:18;7.95;;;4.90;;
62071;SDS011;48031;48.542;13.232;2023-03-16T08:54:21;7.22;;;4.70;;
62071;SDS011;48031;48.542;13.232;2023-03-16T08:58:23;7.65;;;5.10;;
62071;SDS011;48031;48.542;13.232;2023-03-16T09:02:25;7.03;;;4.40;;
62071;SDS011;48031;48.542;13.232;2023-03-16T09:06:27;6.95;;;4.45;;
62071;SDS011;48031;48.542;13.232;2023-03-16T09:10:29;6.40;;;4.28;;
62071;SDS011;48031;48.542;13.232;2023-03-16T09:14:32;4.18;;;3.40;;
62071;SDS011;48031;48.542;13.232;2023-03-16T09:18:37;5.15;;;3.85;;
62071;SDS011;48031;48.542;13.232;2023-03-16T09:22:40;5.40;;;3.30;;
62071;SDS011;48031;48.542;13.232;2023-03-16T09:26:42;5.72;;;3.60;;
62071;SDS011;48031;48.542;13.232;2023-03-16T09:30:44;4.93;;;2.90;;
62071;SDS011;48031;48.542;13.232;2023-03-16T09:34:46;3.30;;;2.95;;
62071;SDS011;48031;48.542;13.232;2023-03-16T09:38:48;3.28;;;2.63;;
62071;SDS011;48031;48.542;13.232;2023-03-16T09:42:58;3.60;;;3.10;;
62071;SDS011;48031;48.542;13.232;2023-03-16T09:47:02;4.05;;;3.30;;
62071;SDS011;48031;48.542;13.232;2023-03-16T09:51:09;3.92;;;3.10;;
62071;SDS011;48031;48.542;13.232;2023-03-16T09:59:29;4.32;;;3.20;;
62071;SDS011;48031;48.542;13.232;2023-03-16T10:12:13;3.17;;;2.42;;
62071;SDS011;48031;48.542;13.232;2023-03-16T10:16:20;3.58;;;2.90;;
62071;SDS011;48031;48.542;13.232;2023-03-16T10:20:34;3.53;;;2.70;;
62071;SDS011;48031;48.542;13.232;2023-03-16T10:24:40;2.63;;;2.38;;
62071;SDS011;48031;48.542;13.232;2023-03-16T10:28:49;2.90;;;2.60;;
62071;SDS011;48031;48.542;13.232;2023-03-16T10:32:54;3.17;;;2.88;;
62071;SDS011;48031;48.542;13.232;2023-03-16T10:36:56;3.00;;;2.42;;
62071;SDS011;48031;48.542;13.232;2023-03-16T10:40:58;3.60;;;2.60;;
62071;SDS011;48031;48.542;13.232;2023-03-16T10:45:01;3.60;;;2.80;;
62071;SDS011;48031;48.542;13.232;2023-03-16T10:49:04;2.85;;;2.53;;
62071;SDS011;48031;48.542;13.232;2023-03-16T10:53:14;4.45;;;2.67;;
62071;SDS011;48031;48.542;13.232;2023-03-16T10:57:24;3.75;;;2.58;;
62071;SDS011;48031;48.542;13.232;2023-03-16T11:01:36;3.00;;;2.70;;
62071;SDS011;48031;48.542;13.232;2023-03-16T11:05:39;3.28;;;2.60;;
62071;SDS011;48031;48.542;13.232;2023-03-16T11:09:42;2.55;;;1.92;;
62071;SDS011;48031;48.542;13.232;2023-03-16T11:13:45;2.28;;;2.08;;
62071;SDS011;48031;48.542;13.232;2023-03-16T11:17:50;2.55;;;2.10;;
62071;SDS011;48031;48.542;13.232;2023-03-16T11:26:06;2.22;;;1.95;;
62071;SDS011;48031;48.542;13.232;2023-03-16T11:30:28;1.70;;;1.60;;
62071;SDS011;48031;48.542;13.232;2023-03-16T11:34:31;2.72;;;1.42;;
62071;SDS011;48031;48.542;13.232;2023-03-16T11:38:43;1.73;;;1.63;;
62071;SDS011;48031;48.542;13.232;2023-03-16T11:47:23;1.90;;;1.80;;
62071;SDS011;48031;48.542;13.232;2023-03-16T11:56:35;1.60;;;1.50;;
62071;SDS011;48031;48.542;13.232;2023-03-16T12:18:17;2.35;;;1.80;;
62071;SDS011;48031;48.542;13.232;2023-03-16T12:26:37;1.77;;;1.60;;
62071;SDS011;48031;48.542;13.232;2023-03-16T12:35:42;2.10;;;2.00;;
62071;SDS011;48031;48.542;13.232;2023-03-16T12:39:19;2.17;;;1.88;;
62071;SDS011;48031;48.542;13.232;2023-03-16T12:52:20;2.10;;;2.00;;
62071;SDS011;48031;48.542;13.232;2023-03-16T12:56:29;2.15;;;2.05;;
62071;SDS011;48031;48.542;13.232;2023-03-16T13:00:32;2.03;;;1.92;;
62071;SDS011;48031;48.542;13.232;2023-03-16T13:04:39;2.20;;;2.10;;
62071;SDS011;48031;48.542;13.232;2023-03-16T13:08:45;2.30;;;2.10;;
62071;SDS011;48031;48.542;13.232;2023-03-16T13:12:51;2.50;;;2.40;;
62071;SDS011;48031;48.542;13.232;2023-03-16T13:16:52;2.50;;;2.30;;
62071;SDS011;48031;48.542;13.232;2023-03-16T13:21:13;2.33;;;2.20;;
62071;SDS011;48031;48.542;13.232;2023-03-16T13:29:31;2.80;;;2.60;;
62071;SDS011;48031;48.542;13.232;2023-03-16T13:33:33;2.97;;;2.78;;
62071;SDS011;48031;48.542;13.232;2023-03-16T13:37:41;2.80;;;2.70;;
62071;SDS011;48031;48.542;13.232;2023-03-16T13:45:58;3.70;;;3.50;;
62071;SDS011;48031;48.542;13.232;2023-03-16T13:50:00;3.33;;;3.13;;
62071;SDS011;48031;48.542;13.232;2023-03-16T13:54:11;3.72;;;3.53;;
62071;SDS011;48031;48.542;13.232;2023-03-16T14:02:26;4.28;;;4.07;;
62071;SDS011;48031;48.542;13.232;2023-03-16T14:06:29;4.10;;;3.90;;
62071;SDS011;48031;48.542;13.232;2023-03-16T14:10:35;4.05;;;3.85;;
62071;SDS011;48031;48.542;13.232;2023-03-16T14:14:38;3.70;;;3.50;;
62071;SDS011;48031;48.542;13.232;2023-03-16T14:18:42;3.80;;;3.60;;
62071;SDS011;48031;48.542;13.232;2023-03-16T14:22:46;3.67;;;3.38;;
62071;SDS011;48031;48.542;13.232;2023-03-16T14:26:52;4.07;;;3.45;;
62071;SDS011;48031;48.542;13.232;2023-03-16T14:31:01;2.60;;;2.50;;
62071;SDS011;48031;48.542;13.232;2023-03-16T14:35:12;3.20;;;3.00;;
62071;SDS011;48031;48.542;13.232;2023-03-16T14:39:22;3.30;;;3.10;;
62071;SDS011;48031;48.542;13.232;2023-03-16T14:43:30;3.10;;;2.90;;
62071;SDS011;48031;48.542;13.232;2023-03-16T14:47:37;2.60;;;2.40;;
62071;SDS011;48031;48.542;13.232;2023-03-16T14:51:42;3.20;;;3.00;;
62071;SDS011;48031;48.542;13.232;2023-03-16T14:55:46;2.40;;;2.30;;
62071;SDS011;48031;48.542;13.232;2023-03-16T14:59:48;1.80;;;1.70;;
62071;SDS011;48031;48.542;13.232;2023-03-16T15:03:50;2.10;;;2.00;;
62071;SDS011;48031;48.542;13.232;2023-03-16T15:07:52;2.00;;;1.90;;
62071;SDS011;48031;48.542;13.232;2023-03-16T15:11:56;2.10;;;1.98;;
62071;SDS011;48031;48.542;13.232;2023-03-16T15:15:59;1.90;;;1.80;;
62071;SDS011;48031;48.542;13.232;2023-03-16T15:20:06;1.67;;;1.58;;
62071;SDS011;48031;48.542;13.232;2023-03-16T15:24:09;1.70;;;1.60;;
62071;SDS011;48031;48.542;13.232;2023-03-16T15:28:14;2.22;;;1.73;;
62071;SDS011;48031;48.542;13.232;2023-03-16T15:32:17;2.13;;;1.90;;
62071;SDS011;48031;48.542;13.232;2023-03-16T15:36:20;1.70;;;1.60;;
62071;SDS011;48031;48.542;13.232;2023-03-16T15:40:26;1.60;;;1.50;;
62071;SDS011;48031;48.542;13.232;2023-03-16T15:44:29;1.77;;;1.65;;
62071;SDS011;48031;48.542;13.232;2023-03-16T15:48:32;1.70;;;1.60;;
62071;SDS011;48031;48.542;13.232;2023-03-16T15:52:34;1.70;;;1.60;;
62071;SDS011;48031;48.542;13.232;2023-03-16T15:56:40;1.80;;;1.70;;
62071;SDS011;48031;48.542;13.232;2023-03-16T16:00:55;2.35;;;2.20;;
62071;SDS011;48031;48.542;13.232;2023-03-16T16:04:59;1.70;;;1.60;;
62071;SDS011;48031;48.542;13.232;2023-03-16T16:09:03;1.45;;;1.30;;
62071;SDS011;48031;48.542;13.232;2023-03-16T16:13:25;1.30;;;1.20;;
62071;SDS011;48031;48.542;13.232;2023-03-16T16:17:44;1.25;;;1.20;;
62071;SDS011;48031;48.542;13.232;2023-03-16T16:22:12;1.10;;;1.00;;
62071;SDS011;48031;48.542;13.232;2023-03-16T16:30:26;1.60;;;1.30;;
62071;SDS011;48031;48.542;13.232;2023-03-16T16:34:29;1.55;;;1.33;;
62071;SDS011;48031;48.542;13.232;2023-03-16T16:38:31;1.42;;;1.20;;
62071;SDS011;48031;48.542;13.232;2023-03-16T16:42:33;1.70;;;1.10;;
62071;SDS011;48031;48.542;13.232;2023-03-16T16:46:37;1.05;;;1.02;;
62071;SDS011;48031;48.542;13.232;2023-03-16T16:50:42;1.58;;;1.45;;
62071;SDS011;48031;48.542;13.232;2023-03-16T16:54:44;1.40;;;1.30;;
62071;SDS011;48031;48.542;13.232;2023-03-16T16:58:46;1.30;;;1.20;;
62071;SDS011;48031;48.542;13.232;2023-03-16T17:02:49;1.08;;;0.90;;
62071;SDS011;48031;48.542;13.232;2023-03-16T17:06:55;1.35;;;1.17;;
62071;SDS011;48031;48.542;13.232;2023-03-16T17:10:59;1.10;;;1.00;;
62071;SDS011;48031;48.542;13.232;2023-03-16T17:15:01;1.33;;;1.20;;
62071;SDS011;48031;48.542;13.232;2023-03-16T17:19:03;1.15;;;1.05;;
62071;SDS011;48031;48.542;13.232;2023-03-16T17:23:21;1.10;;;1.00;;
62071;SDS011;48031;48.542;13.232;2023-03-16T17:27:25;1.15;;;1.05;;
62071;SDS011;48031;48.542;13.232;2023-03-16T17:31:32;3.33;;;1.20;;
62071;SDS011;48031;48.542;13.232;2023-03-16T17:35:37;2.17;;;1.40;;
62071;SDS011;48031;48.542;13.232;2023-03-16T17:39:39;1.30;;;1.20;;
62071;SDS011;48031;48.542;13.232;2023-03-16T17:43:41;1.95;;;1.60;;
62071;SDS011;48031;48.542;13.232;2023-03-16T17:47:43;1.40;;;1.30;;
62071;SDS011;48031;48.542;13.232;2023-03-16T17:51:45;1.95;;;1.50;;
62071;SDS011;48031;48.542;13.232;2023-03-16T17:55:48;1.85;;;1.50;;
62071;SDS011;48031;48.542;13.232;2023-03-16T17:59:50;1.40;;;1.30;;
62071;SDS011;48031;48.542;13.232;2023-03-16T18:03:52;1.88;;;1.35;;
62071;SDS011;48031;48.542;13.232;2023-03-16T18:07:55;3.67;;;1.83;;
62071;SDS011;48031;48.542;13.232;2023-03-16T18:12:00;2.05;;;1.50;;
62071;SDS011;48031;48.542;13.232;2023-03-16T18:16:03;3.10;;;1.45;;
62071;SDS011;48031;48.542;13.232;2023-03-16T18:20:19;1.83;;;1.40;;
62071;SDS011;48031;48.542;13.232;2023-03-16T18:24:23;1.70;;;1.50;;
62071;SDS011;48031;48.542;13.232;2023-03-16T18:28:27;2.03;;;1.60;;
62071;SDS011;48031;48.542;13.232;2023-03-16T18:32:31;2.97;;;1.77;;
62071;SDS011;48031;48.542;13.232;2023-03-16T18:36:34;2.13;;;1.50;;
62071;SDS011;48031;48.542;13.232;2023-03-16T18:40:38;3.15;;;1.85;;
62071;SDS011;48031;48.542;13.232;2023-03-16T18:44:40;3.00;;;1.60;;
62071;SDS011;48031;48.542;13.232;2023-03-16T18:48:42;5.05;;;1.80;;
62071;SDS011;48031;48.542;13.232;2023-03-16T18:52:44;3.05;;;1.77;;
62071;SDS011;48031;48.542;13.232;2023-03-16T18:56:46;1.65;;;1.30;;
62071;SDS011;48031;48.542;13.232;2023-03-16T19:00:55;1.83;;;1.30;;
62071;SDS011;48031;48.542;13.232;2023-03-16T19:04:59;2.15;;;1.30;;
62071;SDS011;48031;48.542;13.232;2023-03-16T19:09:04;2.33;;;1.50;;
62071;SDS011;48031;48.542;13.232;2023-03-16T19:13:12;1.48;;;1.38;;
62071;SDS011;48031;48.542;13.232;2023-03-16T19:17:17;1.90;;;1.50;;
62071;SDS011;48031;48.542;13.232;2023-03-16T19:21:19;1.60;;;1.50;;
62071;SDS011;48031;48.542;13.232;2023-03-16T19:25:27;1.48;;;1.38;;
62071;SDS011;48031;48.542;13.232;2023-03-16T19:29:33;1.77;;;1.42;;
62071;SDS011;48031;48.542;13.232;2023-03-16T19:33:35;4.65;;;1.60;;
62071;SDS011;48031;48.542;13.232;2023-03-16T19:37:39;1.77;;;1.50;;
62071;SDS011;48031;48.542;13.232;2023-03-16T19:41:41;1.95;;;1.50;;
62071;SDS011;48031;48.542;13.232;2023-03-16T19:45:46;1.60;;;1.40;;
62071;SDS011;48031;48.542;13.232;2023-03-16T19:49:49;1.90;;;1.52;;
62071;SDS011;48031;48.542;13.232;2023-03-16T19:53:51;1.50;;;1.30;;
62071;SDS011;48031;48.542;13.232;2023-03-16T19:57:55;1.20;;;1.10;;
62071;SDS011;48031;48.542;13.232;2023-03-16T20:02:13;1.30;;;1.20;;
62071;SDS011;48031;48.542;13.232;2023-03-16T20:06:24;1.20;;;1.10;;
62071;SDS011;48031;48.542;13.232;2023-03-16T20:10:27;1.30;;;1.20;;
62071;SDS011;48031;48.542;13.232;2023-03-16T20:14:31;1.85;;;1.20;;
62071;SDS011;48031;48.542;13.232;2023-03-16T20:18:33;1.33;;;1.15;;
62071;SDS011;48031;48.542;13.232;2023-03-16T20:22:35;2.33;;;1.50;;
62071;SDS011;48031;48.542;13.232;2023-03-16T20:26:37;1.42;;;1.33;;
62071;SDS011;48031;48.542;13.232;2023-03-16T20:30:39;1.30;;;1.20;;
62071;SDS011;48031;48.542;13.232;2023-03-16T20:34:41;1.30;;;1.17;;
62071;SDS011;48031;48.542;13.232;2023-03-16T20:38:43;1.50;;;1.10;;
62071;SDS011;48031;48.542;13.232;2023-03-16T20:42:46;1.50;;;1.40;;
62071;SDS011;48031;48.542;13.232;2023-03-16T20:46:48;1.27;;;1.17;;
62071;SDS011;48031;48.542;13.232;2023-03-16T20:50:51;1.80;;;1.30;;
62071;SDS011;48031;48.542;13.232;2023-03-16T20:54:54;1.20;;;1.10;;
62071;SDS011;48031;48.542;13.232;2023-03-16T20:58:56;1.38;;;1.15;;
62071;SDS011;48031;48.542;13.232;2023-03-16T21:03:00;1.33;;;1.23;;
62071;SDS011;48031;48.542;13.232;2023-03-16T21:07:05;1.50;;;1.40;;
62071;SDS011;48031;48.542;13.232;2023-03-16T21:11:07;1.38;;;1.25;;
62071;SDS011;48031;48.542;13.232;2023-03-16T21:15:23;1.95;;;1.50;;
62071;SDS011;48031;48.542;13.232;2023-03-16T21:19:27;1.65;;;1.40;;
62071;SDS011;48031;48.542;13.232;2023-03-16T21:23:28;3.20;;;1.50;;
62071;SDS011;48031;48.542;13.232;2023-03-16T21:27:31;1.48;;;1.30;;
62071;SDS011;48031;48.542;13.232;2023-03-16T21:31:34;1.55;;;1.40;;
62071;SDS011;48031;48.542;13.232;2023-03-16T21:35:36;2.58;;;1.75;;
62071;SDS011;48031;48.542;13.232;2023-03-16T21:39:38;2.10;;;1.55;;
62071;SDS011;48031;48.542;13.232;2023-03-16T21:43:41;1.85;;;1.60;;
62071;SDS011;48031;48.542;13.232;2023-03-16T21:47:43;1.70;;;1.50;;
62071;SDS011;48031;48.542;13.232;2023-03-16T21:51:47;1.92;;;1.60;;
62071;SDS011;48031;48.542;13.232;2023-03-16T21:55:50;1.75;;;1.65;;
62071;SDS011;48031;48.542;13.232;2023-03-16T21:59:53;1.70;;;1.60;;
62071;SDS011;48031;48.542;13.232;2023-03-16T22:03:56;1.60;;;1.50;;
62071;SDS011;48031;48.542;13.232;2023-03-16T22:08:45;2.97;;;1.80;;
62071;SDS011;48031;48.542;13.232;2023-03-16T22:12:36;1.52;;;1.42;;
62071;SDS011;48031;48.542;13.232;2023-03-16T22:16:38;1.88;;;1.50;;
62071;SDS011;48031;48.542;13.232;2023-03-16T22:20:41;2.17;;;1.60;;
62071;SDS011;48031;48.542;13.232;2023-03-16T22:24:43;1.75;;;1.65;;
62071;SDS011;48031;48.542;13.232;2023-03-16T22:28:45;2.22;;;1.90;;
62071;SDS011;48031;48.542;13.232;2023-03-16T22:32:50;1.70;;;1.50;;
62071;SDS011;48031;48.542;13.232;2023-03-16T22:36:54;2.95;;;1.60;;
62071;SDS011;48031;48.542;13.232;2023-03-16T22:40:57;1.70;;;1.60;;
62071;SDS011;48031;48.542;13.232;2023-03-16T22:45:00;2.15;;;1.88;;
62071;SDS011;48031;48.542;13.232;2023-03-16T22:49:04;2.42;;;1.85;;
62071;SDS011;48031;48.542;13.232;2023-03-16T22:53:19;4.90;;;2.20;;
62071;SDS011;48031;48.542;13.232;2023-03-16T22:57:21;3.65;;;2.08;;
62071;SDS011;48031;48.542;13.232;2023-03-16T23:01:32;2.58;;;1.77;;
62071;SDS011;48031;48.542;13.232;2023-03-16T23:05:35;1.80;;;1.67;;
62071;SDS011;48031;48.542;13.232;2023-03-16T23:09:38;2.67;;;2.00;;
62071;SDS011;48031;48.542;13.232;2023-03-16T23:13:40;4.07;;;2.40;;
62071;SDS011;48031;48.542;13.232;2023-03-16T23:17:42;2.30;;;2.10;;
62071;SDS011;48031;48.542;13.232;2023-03-16T23:21:44;4.10;;;1.90;;
62071;SDS011;48031;48.542;13.232;2023-03-16T23:25:46;3.53;;;2.05;;
62071;SDS011;48031;48.542;13.232;2023-03-16T23:29:48;2.47;;;2.03;;
62071;SDS011;48031;48.542;13.232;2023-03-16T23:33:50;2.97;;;2.00;;
62071;SDS011;48031;48.542;13.232;2023-03-16T23:37:52;4.20;;;2.40;;
62071;SDS011;48031;48.542;13.232;2023-03-16T23:41:55;4.47;;;2.15;;
62071;SDS011;48031;48.542;13.232;2023-03-16T23:45:57;5.53;;;2.38;;
62071;SDS011;48031;48.542;13.232;2023-03-16T23:49:59;2.15;;;1.80;;
62071;SDS011;48031;48.542;13.232;2023-03-16T23:54:04;2.70;;;2.38;;
62071;SDS011;48031;48.542;13.232;2023-03-16T23:58:16;2.00;;;1.80;;
